createdAt,value
2018-07-02T00:00:16.558Z,17.58
2018-07-02T00:01:16.533Z,17.58
2018-07-02T00:02:16.510Z,17.45
2018-07-02T00:03:16.480Z,17.46
2018-07-02T00:04:16.463Z,17.50
2018-07-02T00:05:16.431Z,17.47
2018-07-02T00:06:16.410Z,17.43
2018-07-02T00:07:16.391Z,17.43
2018-07-02T00:08:16.367Z,17.50
2018-07-02T00:09:16.346Z,17.42
2018-07-02T00:10:16.320Z,17.38
2018-07-02T00:11:16.292Z,17.39
2018-07-02T00:12:16.276Z,17.47
2018-07-02T00:13:16.244Z,17.28
2018-07-02T00:14:16.224Z,17.35
2018-07-02T00:15:16.201Z,17.45
2018-07-02T00:16:16.181Z,17.42
2018-07-02T00:17:16.154Z,17.38
2018-07-02T00:18:16.133Z,17.31
2018-07-02T00:19:16.103Z,17.24
2018-07-02T00:20:16.086Z,17.27
2018-07-02T00:21:16.058Z,17.22
2018-07-02T00:22:16.035Z,17.21
2018-07-02T00:23:16.015Z,17.21
2018-07-02T00:24:15.992Z,17.20
2018-07-02T00:25:15.962Z,17.25
2018-07-02T00:26:15.939Z,17.25
2018-07-02T00:27:15.921Z,17.25
2018-07-02T00:28:15.890Z,17.27
2018-07-02T00:29:15.876Z,17.27
2018-07-02T00:30:15.854Z,17.24
2018-07-02T00:31:15.821Z,17.28
2018-07-02T00:32:15.794Z,17.22
2018-07-02T00:33:15.782Z,17.20
2018-07-02T00:34:15.751Z,17.17
2018-07-02T00:35:15.733Z,17.13
2018-07-02T00:36:15.704Z,17.07
2018-07-02T00:37:15.684Z,17.07
2018-07-02T00:38:15.662Z,17.15
2018-07-02T00:39:15.630Z,17.17
2018-07-02T00:40:15.621Z,17.13
2018-07-02T00:41:16.455Z,17.07
2018-07-02T00:42:15.564Z,16.99
2018-07-02T00:43:15.538Z,17.06
2018-07-02T00:44:15.521Z,17.10
2018-07-02T00:45:15.489Z,17.03
2018-07-02T00:46:15.468Z,16.97
2018-07-02T00:47:15.447Z,16.99
2018-07-02T00:48:15.426Z,16.97
2018-07-02T00:49:15.399Z,16.90
2018-07-02T00:50:15.382Z,16.90
2018-07-02T00:51:15.346Z,16.82
2018-07-02T00:52:15.329Z,16.77
2018-07-02T00:53:15.304Z,16.80
2018-07-02T00:54:15.275Z,16.91
2018-07-02T00:55:15.260Z,16.82
2018-07-02T00:56:15.230Z,16.76
2018-07-02T00:57:15.210Z,16.85
2018-07-02T00:58:15.184Z,16.82
2018-07-02T00:59:15.162Z,16.82
2018-07-02T01:00:15.144Z,16.81
2018-07-02T01:01:15.120Z,16.82
2018-07-02T01:02:15.086Z,16.80
2018-07-02T01:03:15.070Z,16.81
2018-07-02T01:04:15.042Z,16.82
2018-07-02T01:05:15.024Z,16.84
2018-07-02T01:06:14.996Z,16.80
2018-07-02T01:07:14.988Z,16.81
2018-07-02T01:08:14.947Z,16.81
2018-07-02T01:09:14.936Z,16.80
2018-07-02T01:10:14.900Z,16.81
2018-07-02T01:11:14.882Z,16.82
2018-07-02T01:12:14.852Z,16.72
2018-07-02T01:13:14.835Z,16.74
2018-07-02T01:14:14.802Z,16.70
2018-07-02T01:15:14.787Z,16.80
2018-07-02T01:16:14.759Z,16.81
2018-07-02T01:17:14.738Z,16.87
2018-07-02T01:18:14.709Z,16.77
2018-07-02T01:19:14.693Z,16.84
2018-07-02T01:20:14.663Z,16.81
2018-07-02T01:21:14.645Z,16.72
2018-07-02T01:22:14.614Z,16.70
2018-07-02T01:23:14.597Z,16.72
2018-07-02T01:24:14.564Z,16.67
2018-07-02T01:25:14.550Z,16.62
2018-07-02T01:26:14.517Z,16.65
2018-07-02T01:27:14.502Z,16.66
2018-07-02T01:28:14.470Z,16.65
2018-07-02T01:29:14.446Z,16.55
2018-07-02T01:30:14.423Z,16.65
2018-07-02T01:31:14.403Z,16.62
2018-07-02T01:32:14.375Z,16.65
2018-07-02T01:33:14.360Z,16.63
2018-07-02T01:34:14.333Z,16.58
2018-07-02T01:35:14.304Z,16.57
2018-07-02T01:36:14.288Z,16.58
2018-07-02T01:37:14.257Z,16.58
2018-07-02T01:38:14.236Z,16.57
2018-07-02T01:39:14.210Z,16.54
2018-07-02T01:40:14.193Z,16.52
2018-07-02T01:41:14.161Z,16.52
2018-07-02T01:42:14.138Z,16.52
2018-07-02T01:43:14.119Z,16.52
2018-07-02T01:44:14.088Z,16.58
2018-07-02T01:45:14.077Z,16.49
2018-07-02T01:46:14.052Z,16.49
2018-07-02T01:47:14.021Z,16.54
2018-07-02T01:48:14.001Z,16.57
2018-07-02T01:49:13.970Z,16.55
2018-07-02T01:50:13.952Z,16.55
2018-07-02T01:51:13.926Z,16.52
2018-07-02T01:52:13.900Z,16.48
2018-07-02T01:53:13.880Z,16.39
2018-07-02T01:54:13.861Z,16.48
2018-07-02T01:55:13.825Z,16.40
2018-07-02T01:56:13.802Z,16.44
2018-07-02T01:57:13.788Z,16.36
2018-07-02T01:58:13.753Z,16.29
2018-07-02T01:59:13.739Z,16.26
2018-07-02T02:00:13.710Z,16.26
2018-07-02T02:01:13.688Z,16.26
2018-07-02T02:02:13.663Z,16.29
2018-07-02T02:03:13.641Z,16.36
2018-07-02T02:04:13.611Z,16.25
2018-07-02T02:05:13.603Z,16.25
2018-07-02T02:06:13.566Z,16.25
2018-07-02T02:07:13.549Z,16.21
2018-07-02T02:08:13.521Z,16.13
2018-07-02T02:09:13.495Z,16.16
2018-07-02T02:10:13.474Z,15.96
2018-07-02T02:11:13.447Z,15.93
2018-07-02T02:12:13.431Z,15.98
2018-07-02T02:13:13.398Z,15.91
2018-07-02T02:14:13.382Z,15.95
2018-07-02T02:15:13.351Z,15.92
2018-07-02T02:16:13.328Z,15.91
2018-07-02T02:17:13.309Z,15.96
2018-07-02T02:18:13.278Z,15.93
2018-07-02T02:19:13.261Z,15.89
2018-07-02T02:20:13.233Z,15.95
2018-07-02T02:21:13.230Z,15.98
2018-07-02T02:22:13.185Z,15.95
2018-07-02T02:23:13.162Z,15.95
2018-07-02T02:24:13.137Z,15.84
2018-07-02T02:25:13.116Z,15.89
2018-07-02T02:26:13.094Z,15.89
2018-07-02T02:27:13.060Z,15.84
2018-07-02T02:28:13.038Z,15.89
2018-07-02T02:29:13.021Z,15.89
2018-07-02T02:30:12.998Z,15.86
2018-07-02T02:31:12.968Z,15.86
2018-07-02T02:32:12.944Z,15.73
2018-07-02T02:33:12.924Z,15.81
2018-07-02T02:34:12.895Z,15.81
2018-07-02T02:35:12.878Z,15.78
2018-07-02T02:36:12.847Z,15.73
2018-07-02T02:37:12.831Z,15.71
2018-07-02T02:38:12.811Z,15.77
2018-07-02T02:39:12.783Z,15.77
2018-07-02T02:40:12.752Z,15.67
2018-07-02T02:41:12.733Z,15.70
2018-07-02T02:42:12.701Z,15.78
2018-07-02T02:43:12.685Z,15.83
2018-07-02T02:44:12.657Z,15.86
2018-07-02T02:45:12.634Z,15.80
2018-07-02T02:46:12.612Z,15.80
2018-07-02T02:47:12.587Z,15.77
2018-07-02T02:48:12.561Z,15.77
2018-07-02T02:49:12.534Z,15.77
2018-07-02T02:50:12.507Z,15.77
2018-07-02T02:51:12.499Z,15.81
2018-07-02T02:52:12.468Z,15.78
2018-07-02T02:53:12.437Z,15.78
2018-07-02T02:54:12.415Z,15.78
2018-07-02T02:55:12.394Z,15.77
2018-07-02T02:56:12.366Z,15.80
2018-07-02T02:57:12.341Z,15.78
2018-07-02T02:58:12.318Z,15.65
2018-07-02T02:59:12.295Z,15.73
2018-07-02T03:00:12.272Z,15.78
2018-07-02T03:01:12.246Z,15.67
2018-07-02T03:02:12.224Z,15.63
2018-07-02T03:03:12.199Z,15.58
2018-07-02T03:04:12.221Z,15.56
2018-07-02T03:05:12.197Z,15.51
2018-07-02T03:06:12.124Z,15.52
2018-07-02T03:07:12.103Z,15.53
2018-07-02T03:08:12.073Z,15.49
2018-07-02T03:09:12.057Z,15.53
2018-07-02T03:10:12.025Z,15.47
2018-07-02T03:11:12.018Z,15.45
2018-07-02T03:12:11.984Z,15.45
2018-07-02T03:13:11.962Z,15.45
2018-07-02T03:14:11.927Z,15.41
2018-07-02T03:15:11.907Z,15.44
2018-07-02T03:16:11.912Z,15.38
2018-07-02T03:17:11.861Z,15.41
2018-07-02T03:18:11.840Z,15.44
2018-07-02T03:19:11.814Z,15.35
2018-07-02T03:20:11.790Z,15.34
2018-07-02T03:21:11.763Z,15.34
2018-07-02T03:22:11.741Z,15.41
2018-07-02T03:23:11.714Z,15.38
2018-07-02T03:24:11.694Z,15.34
2018-07-02T03:25:11.664Z,15.40
2018-07-02T03:26:11.646Z,15.34
2018-07-02T03:27:11.615Z,15.25
2018-07-02T03:28:11.592Z,15.27
2018-07-02T03:29:11.570Z,15.38
2018-07-02T03:30:11.549Z,15.35
2018-07-02T03:31:11.515Z,15.37
2018-07-02T03:32:11.498Z,15.37
2018-07-02T03:33:11.470Z,15.37
2018-07-02T03:34:11.444Z,15.41
2018-07-02T03:35:11.421Z,15.35
2018-07-02T03:36:11.398Z,15.40
2018-07-02T03:37:11.376Z,15.35
2018-07-02T03:38:11.349Z,15.38
2018-07-02T03:39:11.329Z,15.35
2018-07-02T03:40:11.299Z,15.34
2018-07-02T03:41:11.282Z,15.35
2018-07-02T03:42:11.254Z,15.23
2018-07-02T03:43:11.232Z,15.23
2018-07-02T03:44:11.200Z,15.34
2018-07-02T03:45:11.184Z,15.37
2018-07-02T03:46:11.157Z,15.20
2018-07-02T03:47:11.132Z,15.37
2018-07-02T03:48:11.109Z,15.38
2018-07-02T03:49:11.084Z,15.35
2018-07-02T03:50:11.059Z,15.38
2018-07-02T03:51:11.030Z,15.37
2018-07-02T03:52:11.018Z,15.35
2018-07-02T03:53:10.985Z,15.38
2018-07-02T03:54:10.971Z,15.38
2018-07-02T03:55:10.941Z,15.43
2018-07-02T03:56:10.916Z,15.40
2018-07-02T03:57:10.883Z,15.41
2018-07-02T03:58:10.863Z,15.40
2018-07-02T03:59:10.842Z,15.37
2018-07-02T04:00:10.819Z,15.40
2018-07-02T04:01:10.826Z,15.43
2018-07-02T04:02:10.772Z,15.44
2018-07-02T04:03:10.738Z,15.43
2018-07-02T04:04:10.714Z,15.41
2018-07-02T04:05:10.696Z,15.40
2018-07-02T04:06:10.669Z,15.44
2018-07-02T04:07:10.649Z,15.38
2018-07-02T04:08:10.620Z,15.45
2018-07-02T04:09:10.599Z,15.38
2018-07-02T04:10:10.570Z,15.31
2018-07-02T04:11:10.549Z,15.25
2018-07-02T04:12:10.554Z,15.34
2018-07-02T04:13:10.505Z,15.19
2018-07-02T04:14:10.472Z,15.31
2018-07-02T04:15:10.456Z,15.25
2018-07-02T04:16:10.423Z,15.30
2018-07-02T04:17:10.402Z,15.22
2018-07-02T04:18:10.380Z,15.31
2018-07-02T04:19:10.352Z,15.31
2018-07-02T04:20:10.335Z,15.15
2018-07-02T04:21:10.302Z,15.22
2018-07-02T04:22:10.281Z,15.23
2018-07-02T04:23:10.259Z,15.12
2018-07-02T04:24:10.235Z,15.20
2018-07-02T04:25:10.207Z,15.31
2018-07-02T04:26:10.420Z,15.30
2018-07-02T04:27:10.160Z,15.35
2018-07-02T04:28:10.140Z,15.37
2018-07-02T04:29:10.108Z,15.38
2018-07-02T04:30:10.092Z,15.35
2018-07-02T04:31:10.059Z,15.40
2018-07-02T04:32:10.049Z,15.35
2018-07-02T04:33:10.017Z,15.43
2018-07-02T04:34:10.029Z,15.43
2018-07-02T04:35:09.961Z,15.44
2018-07-02T04:36:09.939Z,15.40
2018-07-02T04:37:09.922Z,15.45
2018-07-02T04:38:09.888Z,15.51
2018-07-02T04:39:09.868Z,15.40
2018-07-02T04:40:09.840Z,15.43
2018-07-02T04:41:09.826Z,15.40
2018-07-02T04:42:09.793Z,15.44
2018-07-02T04:43:09.778Z,15.44
2018-07-02T04:44:09.745Z,15.51
2018-07-02T04:45:09.729Z,15.49
2018-07-02T04:46:09.696Z,15.51
2018-07-02T04:47:09.676Z,15.52
2018-07-02T04:48:09.659Z,15.56
2018-07-02T04:49:09.627Z,15.49
2018-07-02T04:50:09.605Z,15.49
2018-07-02T04:51:09.574Z,15.58
2018-07-02T04:52:09.560Z,15.58
2018-07-02T04:53:09.528Z,15.63
2018-07-02T04:54:09.506Z,15.68
2018-07-02T04:55:09.479Z,15.71
2018-07-02T04:56:09.455Z,15.78
2018-07-02T04:57:09.465Z,15.80
2018-07-02T04:58:09.405Z,15.83
2018-07-02T04:59:09.385Z,15.84
2018-07-02T05:00:09.357Z,15.95
2018-07-02T05:01:09.333Z,15.95
2018-07-02T05:02:09.307Z,16.00
2018-07-02T05:03:09.292Z,16.06
2018-07-02T05:04:09.259Z,16.00
2018-07-02T05:05:09.244Z,16.00
2018-07-02T05:06:09.215Z,16.02
2018-07-02T05:07:09.194Z,16.13
2018-07-02T05:08:09.169Z,16.08
2018-07-02T05:09:09.142Z,16.14
2018-07-02T05:10:09.122Z,16.27
2018-07-02T05:11:09.089Z,16.21
2018-07-02T05:12:09.071Z,16.27
2018-07-02T05:13:09.043Z,16.21
2018-07-02T05:14:09.018Z,16.30
2018-07-02T05:15:09.004Z,16.25
2018-07-02T05:16:08.973Z,16.27
2018-07-02T05:17:08.955Z,16.25
2018-07-02T05:18:08.929Z,16.42
2018-07-02T05:19:08.897Z,16.40
2018-07-02T05:20:08.881Z,16.26
2018-07-02T05:21:08.855Z,16.34
2018-07-02T05:22:08.834Z,16.49
2018-07-02T05:23:09.532Z,16.57
2018-07-02T05:24:08.816Z,16.58
2018-07-02T05:25:08.756Z,16.57
2018-07-02T05:26:08.762Z,16.58
2018-07-02T05:27:08.712Z,16.54
2018-07-02T05:28:08.683Z,16.65
2018-07-02T05:29:08.661Z,16.69
2018-07-02T05:30:08.641Z,16.67
2018-07-02T05:31:08.610Z,16.76
2018-07-02T05:32:08.591Z,16.85
2018-07-02T05:33:08.565Z,16.85
2018-07-02T05:34:08.536Z,16.87
2018-07-02T05:35:08.522Z,16.88
2018-07-02T05:36:08.488Z,16.90
2018-07-02T05:37:08.495Z,17.02
2018-07-02T05:38:08.444Z,17.03
2018-07-02T05:39:08.418Z,17.02
2018-07-02T05:40:08.403Z,17.05
2018-07-02T05:41:08.393Z,17.13
2018-07-02T05:42:08.347Z,17.25
2018-07-02T05:43:08.329Z,17.30
2018-07-02T05:44:08.296Z,17.28
2018-07-02T05:45:08.281Z,17.36
2018-07-02T05:46:08.249Z,17.35
2018-07-02T05:47:08.235Z,17.39
2018-07-02T05:48:08.218Z,17.39
2018-07-02T05:49:08.182Z,17.43
2018-07-02T05:50:08.160Z,17.42
2018-07-02T05:51:08.136Z,17.47
2018-07-02T05:52:08.105Z,17.45
2018-07-02T05:53:08.087Z,17.45
2018-07-02T05:54:08.060Z,17.62
2018-07-02T05:55:08.040Z,17.62
2018-07-02T05:56:08.011Z,17.60
2018-07-02T05:57:07.995Z,17.74
2018-07-02T05:58:07.961Z,17.69
2018-07-02T05:59:07.947Z,17.76
2018-07-02T06:00:07.959Z,17.77
2018-07-02T06:01:07.896Z,17.80
2018-07-02T06:02:07.871Z,17.73
2018-07-02T06:03:07.849Z,17.81
2018-07-02T06:04:07.824Z,17.83
2018-07-02T06:05:07.807Z,17.88
2018-07-02T06:06:07.780Z,17.96
2018-07-02T06:07:07.759Z,17.95
2018-07-02T06:08:07.786Z,18.06
2018-07-02T06:09:07.711Z,18.06
2018-07-02T06:10:07.707Z,18.03
2018-07-02T06:11:07.660Z,18.08
2018-07-02T06:12:07.632Z,18.10
2018-07-02T06:13:07.616Z,18.06
2018-07-02T06:14:07.584Z,18.14
2018-07-02T06:15:07.564Z,18.14
2018-07-02T06:16:07.541Z,18.11
2018-07-02T06:17:07.515Z,18.19
2018-07-02T06:18:07.487Z,18.16
2018-07-02T06:19:07.474Z,18.26
2018-07-02T06:20:07.447Z,18.26
2018-07-02T06:21:07.422Z,18.36
2018-07-02T06:22:07.436Z,18.38
2018-07-02T06:23:07.369Z,18.45
2018-07-02T06:24:07.349Z,18.44
2018-07-02T06:25:07.328Z,18.53
2018-07-02T06:26:07.301Z,18.56
2018-07-02T06:27:07.298Z,18.59
2018-07-02T06:28:07.258Z,18.65
2018-07-02T06:29:07.237Z,18.60
2018-07-02T06:30:07.214Z,18.76
2018-07-02T06:31:07.186Z,18.72
2018-07-02T06:32:07.161Z,18.72
2018-07-02T06:33:07.141Z,18.84
2018-07-02T06:34:07.120Z,18.86
2018-07-02T06:35:07.088Z,18.89
2018-07-02T06:36:07.069Z,18.89
2018-07-02T06:37:07.044Z,18.94
2018-07-02T06:38:07.016Z,18.96
2018-07-02T06:39:07.002Z,19.00
2018-07-02T06:40:06.977Z,19.06
2018-07-02T06:41:06.961Z,19.05
2018-07-02T06:42:06.956Z,19.10
2018-07-02T06:43:06.906Z,19.07
2018-07-02T06:44:06.886Z,19.19
2018-07-02T06:45:07.572Z,19.19
2018-07-02T06:46:06.835Z,19.19
2018-07-02T06:47:06.814Z,19.28
2018-07-02T06:48:06.785Z,19.31
2018-07-02T06:49:06.774Z,19.28
2018-07-02T06:50:06.738Z,19.32
2018-07-02T06:51:06.773Z,19.43
2018-07-02T06:52:06.697Z,19.45
2018-07-02T06:53:06.684Z,19.50
2018-07-02T06:54:06.649Z,19.47
2018-07-02T06:55:06.628Z,19.49
2018-07-02T06:56:06.603Z,19.60
2018-07-02T06:57:06.583Z,19.56
2018-07-02T06:58:06.563Z,19.60
2018-07-02T06:59:06.531Z,19.75
2018-07-02T07:00:06.508Z,19.74
2018-07-02T07:01:06.494Z,19.74
2018-07-02T07:02:06.464Z,19.72
2018-07-02T07:03:06.441Z,19.79
2018-07-02T07:04:06.423Z,19.85
2018-07-02T07:05:06.394Z,19.90
2018-07-02T07:06:06.378Z,19.87
2018-07-02T07:07:06.346Z,19.97
2018-07-02T07:08:06.328Z,20.01
2018-07-02T07:09:06.304Z,20.00
2018-07-02T07:10:06.288Z,20.04
2018-07-02T07:11:06.273Z,20.11
2018-07-02T07:12:06.261Z,20.16
2018-07-02T07:13:06.212Z,20.18
2018-07-02T07:14:06.206Z,20.27
2018-07-02T07:15:06.165Z,20.27
2018-07-02T07:16:06.150Z,20.27
2018-07-02T07:17:06.143Z,20.35
2018-07-02T07:18:06.097Z,20.23
2018-07-02T07:19:06.072Z,20.34
2018-07-02T07:20:06.049Z,20.46
2018-07-02T07:21:06.036Z,20.42
2018-07-02T07:22:06.003Z,20.40
2018-07-02T07:23:05.991Z,20.46
2018-07-02T07:24:05.960Z,20.51
2018-07-02T07:25:05.942Z,20.57
2018-07-02T07:26:05.915Z,20.58
2018-07-02T07:27:05.895Z,20.58
2018-07-02T07:28:05.875Z,20.61
2018-07-02T07:29:05.845Z,20.67
2018-07-02T07:30:05.832Z,20.66
2018-07-02T07:31:05.859Z,20.74
2018-07-02T07:32:05.788Z,20.74
2018-07-02T07:33:05.813Z,20.81
2018-07-02T07:34:05.731Z,20.86
2018-07-02T07:35:05.711Z,20.83
2018-07-02T07:36:05.697Z,20.88
2018-07-02T07:37:05.666Z,20.86
2018-07-02T07:38:05.648Z,20.90
2018-07-02T07:39:05.625Z,21.00
2018-07-02T07:40:05.605Z,21.04
2018-07-02T07:41:05.580Z,21.09
2018-07-02T07:42:05.603Z,21.12
2018-07-02T07:43:05.539Z,21.13
2018-07-02T07:44:05.509Z,21.18
2018-07-02T07:45:05.489Z,21.19
2018-07-02T07:46:05.469Z,21.25
2018-07-02T07:47:05.446Z,21.36
2018-07-02T07:48:05.426Z,21.28
2018-07-02T07:49:05.396Z,21.28
2018-07-02T07:50:06.084Z,21.30
2018-07-02T07:51:05.351Z,21.36
2018-07-02T07:52:05.330Z,21.27
2018-07-02T07:53:05.362Z,21.33
2018-07-02T07:54:05.285Z,21.41
2018-07-02T07:55:05.272Z,21.36
2018-07-02T07:56:05.246Z,21.45
2018-07-02T07:57:05.225Z,21.55
2018-07-02T07:58:05.204Z,21.58
2018-07-02T07:59:05.178Z,21.62
2018-07-02T08:00:05.181Z,21.62
2018-07-02T08:01:05.131Z,21.71
2018-07-02T08:02:05.109Z,21.82
2018-07-02T08:03:05.090Z,21.78
2018-07-02T08:04:05.073Z,21.82
2018-07-02T08:05:05.091Z,21.77
2018-07-02T08:06:05.028Z,21.74
2018-07-02T08:07:05.012Z,21.82
2018-07-02T08:08:04.986Z,21.85
2018-07-02T08:09:04.952Z,21.86
2018-07-02T08:10:04.941Z,21.96
2018-07-02T08:11:04.909Z,21.86
2018-07-02T08:12:04.892Z,21.92
2018-07-02T08:13:04.868Z,22.00
2018-07-02T08:14:04.849Z,21.97
2018-07-02T08:15:04.821Z,21.99
2018-07-02T08:16:04.802Z,22.04
2018-07-02T08:17:04.779Z,22.00
2018-07-02T08:18:04.760Z,22.05
2018-07-02T08:19:04.778Z,22.04
2018-07-02T08:20:04.719Z,22.07
2018-07-02T08:21:04.688Z,22.09
2018-07-02T08:22:04.669Z,22.04
2018-07-02T08:23:04.643Z,22.12
2018-07-02T08:24:04.627Z,22.24
2018-07-02T08:25:04.601Z,22.08
2018-07-02T08:26:04.579Z,22.27
2018-07-02T08:27:04.567Z,22.23
2018-07-02T08:28:04.538Z,22.15
2018-07-02T08:29:04.519Z,22.23
2018-07-02T08:30:04.494Z,22.30
2018-07-02T08:31:04.480Z,22.30
2018-07-02T08:32:04.457Z,22.27
2018-07-02T08:33:04.437Z,22.22
2018-07-02T08:34:04.410Z,22.29
2018-07-02T08:35:04.389Z,22.31
2018-07-02T08:36:04.378Z,22.34
2018-07-02T08:37:04.349Z,22.41
2018-07-02T08:38:04.335Z,22.49
2018-07-02T08:39:05.071Z,22.45
2018-07-02T08:40:04.283Z,22.42
2018-07-02T08:41:04.311Z,22.45
2018-07-02T08:42:04.260Z,22.29
2018-07-02T08:43:04.264Z,22.26
2018-07-02T08:44:05.053Z,22.31
2018-07-02T08:45:04.185Z,22.36
2018-07-02T08:46:04.159Z,22.38
2018-07-02T08:47:04.132Z,22.42
2018-07-02T08:48:04.131Z,22.44
2018-07-02T08:49:04.084Z,22.52
2018-07-02T08:50:04.058Z,22.55
2018-07-02T08:51:04.044Z,22.78
2018-07-02T08:52:04.025Z,22.86
2018-07-02T08:53:03.998Z,22.78
2018-07-02T08:54:03.986Z,22.79
2018-07-02T08:55:03.974Z,22.82
2018-07-02T08:56:03.942Z,22.86
2018-07-02T08:57:03.951Z,22.86
2018-07-02T08:58:03.911Z,22.91
2018-07-02T08:59:03.881Z,22.89
2018-07-02T09:00:03.843Z,22.84
2018-07-02T09:01:03.836Z,22.78
2018-07-02T09:02:03.809Z,22.73
2018-07-02T09:03:03.805Z,22.73
2018-07-02T09:04:03.760Z,22.75
2018-07-02T09:05:03.737Z,22.67
2018-07-02T09:06:03.720Z,22.63
2018-07-02T09:07:03.802Z,22.61
2018-07-02T09:08:03.676Z,22.66
2018-07-02T09:09:03.657Z,22.59
2018-07-02T09:10:03.635Z,22.81
2018-07-02T09:11:03.610Z,22.78
2018-07-02T09:12:03.590Z,22.61
2018-07-02T09:13:03.566Z,22.69
2018-07-02T09:14:03.540Z,22.76
2018-07-02T09:15:03.530Z,22.76
2018-07-02T09:16:03.517Z,22.75
2018-07-02T09:17:03.478Z,22.76
2018-07-02T09:18:03.466Z,22.85
2018-07-02T09:19:03.575Z,22.99
2018-07-02T09:20:03.460Z,23.03
2018-07-02T09:21:03.439Z,23.07
2018-07-02T09:22:03.413Z,23.10
2018-07-02T09:23:03.410Z,23.15
2018-07-02T09:24:03.371Z,23.15
2018-07-02T09:25:03.307Z,23.16
2018-07-02T09:26:03.282Z,23.15
2018-07-02T09:27:03.275Z,23.15
2018-07-02T09:28:03.304Z,23.12
2018-07-02T09:29:03.245Z,23.10
2018-07-02T09:30:03.220Z,23.26
2018-07-02T09:31:03.284Z,23.18
2018-07-02T09:32:03.181Z,23.19
2018-07-02T09:33:03.155Z,23.29
2018-07-02T09:34:03.146Z,23.40
2018-07-02T09:35:03.128Z,23.41
2018-07-02T09:36:03.071Z,23.45
2018-07-02T09:37:03.087Z,23.57
2018-07-02T09:38:03.076Z,23.60
2018-07-02T09:39:03.012Z,23.59
2018-07-02T09:40:02.987Z,23.63
2018-07-02T09:41:02.968Z,23.62
2018-07-02T09:42:02.943Z,23.70
2018-07-02T09:43:02.926Z,23.59
2018-07-02T09:44:02.898Z,23.62
2018-07-02T09:45:02.920Z,23.70
2018-07-02T09:46:02.859Z,23.64
2018-07-02T09:47:02.859Z,23.60
2018-07-02T09:48:02.826Z,23.62
2018-07-02T09:49:02.821Z,23.64
2018-07-02T09:50:02.776Z,23.67
2018-07-02T09:51:02.759Z,23.71
2018-07-02T09:52:02.743Z,23.71
2018-07-02T09:53:02.748Z,23.78
2018-07-02T09:54:02.693Z,23.77
2018-07-02T09:55:02.698Z,23.81
2018-07-02T09:56:02.652Z,23.79
2018-07-02T09:57:02.650Z,23.72
2018-07-02T09:58:02.607Z,23.63
2018-07-02T09:59:02.593Z,23.55
2018-07-02T10:00:02.590Z,23.53
2018-07-02T10:01:02.571Z,23.53
2018-07-02T10:02:02.545Z,23.64
2018-07-02T10:03:02.557Z,23.57
2018-07-02T10:04:02.503Z,23.59
2018-07-02T10:05:02.481Z,23.66
2018-07-02T10:06:02.438Z,23.48
2018-07-02T10:07:02.433Z,23.35
2018-07-02T10:08:02.450Z,23.35
2018-07-02T10:09:02.380Z,23.41
2018-07-02T10:10:02.356Z,23.52
2018-07-02T10:11:02.358Z,23.66
2018-07-02T10:12:02.333Z,23.81
2018-07-02T10:13:02.299Z,23.81
2018-07-02T10:14:02.281Z,24.07
2018-07-02T10:15:02.250Z,24.00
2018-07-02T10:16:02.229Z,24.08
2018-07-02T10:17:02.237Z,24.07
2018-07-02T10:18:02.192Z,24.09
2018-07-02T10:19:02.189Z,23.99
2018-07-02T10:20:02.150Z,23.81
2018-07-02T10:21:02.137Z,23.82
2018-07-02T10:22:02.135Z,23.74
2018-07-02T10:23:02.105Z,23.81
2018-07-02T10:24:02.068Z,23.81
2018-07-02T10:25:02.050Z,23.82
2018-07-02T10:26:02.055Z,23.63
2018-07-02T10:27:02.049Z,23.62
2018-07-02T10:28:01.986Z,23.62
2018-07-02T10:29:02.000Z,23.71
2018-07-02T10:30:01.939Z,23.84
2018-07-02T10:31:02.003Z,23.79
2018-07-02T10:32:01.911Z,23.92
2018-07-02T10:33:01.887Z,24.02
2018-07-02T10:34:01.864Z,23.94
2018-07-02T10:35:01.840Z,24.11
2018-07-02T10:36:01.852Z,24.04
2018-07-02T10:37:01.824Z,24.11
2018-07-02T10:38:01.796Z,24.11
2018-07-02T10:39:01.818Z,24.14
2018-07-02T10:40:01.757Z,24.14
2018-07-02T10:41:01.742Z,24.12
2018-07-02T10:42:01.723Z,24.26
2018-07-02T10:43:01.725Z,24.21
2018-07-02T10:44:01.657Z,24.21
2018-07-02T10:45:01.657Z,24.27
2018-07-02T10:46:01.638Z,24.19
2018-07-02T10:47:01.608Z,24.03
2018-07-02T10:48:01.605Z,24.08
2018-07-02T10:49:01.554Z,24.03
2018-07-02T10:50:01.553Z,24.03
2018-07-02T10:51:01.506Z,24.02
2018-07-02T10:52:01.518Z,24.00
2018-07-02T10:53:01.636Z,24.07
2018-07-02T10:54:01.608Z,24.08
2018-07-02T10:55:01.479Z,24.30
2018-07-02T10:56:01.480Z,24.39
2018-07-02T10:57:01.440Z,24.36
2018-07-02T10:58:01.396Z,24.33
2018-07-02T10:59:01.346Z,24.37
2018-07-02T11:00:01.320Z,24.45
2018-07-02T11:01:01.326Z,24.40
2018-07-02T11:02:01.279Z,24.46
2018-07-02T11:03:01.272Z,24.45
2018-07-02T11:04:01.244Z,24.40
2018-07-02T11:05:01.233Z,24.42
2018-07-02T11:06:01.214Z,24.29
2018-07-02T11:07:01.187Z,24.21
2018-07-02T11:08:01.162Z,24.19
2018-07-02T11:09:01.161Z,24.17
2018-07-02T11:10:01.118Z,24.12
2018-07-02T11:11:01.150Z,24.17
2018-07-02T11:12:01.147Z,24.11
2018-07-02T11:13:01.065Z,24.32
2018-07-02T11:14:01.050Z,24.21
2018-07-02T11:15:01.018Z,24.33
2018-07-02T11:16:00.994Z,24.44
2018-07-02T11:17:00.979Z,24.39
2018-07-02T11:18:00.953Z,24.58
2018-07-02T11:19:00.986Z,24.58
2018-07-02T11:20:00.929Z,24.61
2018-07-02T11:21:00.906Z,24.58
2018-07-02T11:22:00.926Z,24.39
2018-07-02T11:23:00.880Z,24.46
2018-07-02T11:24:00.833Z,24.33
2018-07-02T11:25:00.824Z,24.39
2018-07-02T11:26:00.826Z,24.42
2018-07-02T11:27:00.911Z,24.54
2018-07-02T11:28:01.023Z,24.45
2018-07-02T11:29:01.526Z,24.39
2018-07-02T11:30:00.737Z,24.44
2018-07-02T11:31:00.693Z,24.42
2018-07-02T11:32:00.685Z,24.39
2018-07-02T11:33:00.661Z,24.37
2018-07-02T11:34:00.629Z,24.42
2018-07-02T11:35:00.626Z,24.54
2018-07-02T11:36:00.602Z,24.63
2018-07-02T11:37:00.581Z,24.78
2018-07-02T11:38:00.549Z,24.75
2018-07-02T11:39:00.534Z,24.82
2018-07-02T11:40:01.138Z,24.78
2018-07-02T11:41:00.490Z,24.77
2018-07-02T11:42:00.471Z,24.89
2018-07-02T11:43:00.454Z,24.85
2018-07-02T11:44:00.425Z,24.86
2018-07-02T11:45:00.437Z,24.90
2018-07-02T11:46:00.423Z,24.78
2018-07-02T11:47:00.411Z,24.64
2018-07-02T11:48:00.384Z,24.67
2018-07-02T11:49:00.333Z,24.59
2018-07-02T11:50:00.338Z,24.74
2018-07-02T11:51:00.307Z,24.83
2018-07-02T11:52:00.295Z,24.82
2018-07-02T11:53:00.248Z,25.07
2018-07-02T11:54:00.265Z,25.89
2018-07-02T11:55:00.205Z,26.69
2018-07-02T11:56:00.216Z,27.51
2018-07-02T11:57:00.187Z,28.51
2018-07-02T11:58:00.187Z,28.98
2018-07-02T11:59:00.141Z,29.65
2018-07-02T12:00:00.122Z,29.36
2018-07-02T12:01:00.120Z,29.45
2018-07-02T12:02:00.148Z,29.82
2018-07-02T12:03:00.080Z,29.82
2018-07-02T12:04:00.051Z,29.60
2018-07-02T12:05:00.057Z,30.10
2018-07-02T12:06:00.015Z,29.82
2018-07-02T12:06:59.986Z,29.73
2018-07-02T12:07:59.972Z,29.54
2018-07-02T12:08:59.954Z,29.70
2018-07-02T12:09:59.960Z,30.11
2018-07-02T12:10:59.913Z,30.02
2018-07-02T12:11:59.897Z,29.82
2018-07-02T12:12:59.882Z,30.04
2018-07-02T12:13:59.859Z,29.97
2018-07-02T12:14:59.887Z,28.67
2018-07-02T12:15:59.839Z,28.67
2018-07-02T12:16:59.853Z,28.41
2018-07-02T12:17:59.824Z,28.01
2018-07-02T12:18:59.825Z,28.14
2018-07-02T12:19:59.756Z,27.89
2018-07-02T12:20:59.742Z,27.30
2018-07-02T12:22:00.647Z,27.15
2018-07-02T12:22:59.740Z,27.13
2018-07-02T12:23:59.708Z,26.99
2018-07-02T12:24:59.694Z,27.16
2018-07-02T12:25:59.645Z,26.89
2018-07-02T12:26:59.653Z,26.39
2018-07-02T12:27:59.627Z,26.35
2018-07-02T12:28:59.617Z,26.07
2018-07-02T12:29:59.596Z,25.60
2018-07-02T12:30:59.557Z,25.67
2018-07-02T12:31:59.566Z,25.78
2018-07-02T12:32:59.540Z,26.06
2018-07-02T12:33:59.515Z,26.22
2018-07-02T12:34:59.498Z,26.39
2018-07-02T12:35:59.497Z,26.35
2018-07-02T12:36:59.465Z,26.42
2018-07-02T12:37:59.438Z,26.23
2018-07-02T12:38:59.426Z,26.20
2018-07-02T12:39:59.411Z,26.20
2018-07-02T12:40:59.429Z,26.15
2018-07-02T12:41:59.364Z,25.91
2018-07-02T12:42:59.329Z,25.82
2018-07-02T12:43:59.315Z,25.78
2018-07-02T12:44:59.310Z,25.75
2018-07-02T12:45:59.264Z,25.69
2018-07-02T12:46:59.312Z,25.76
2018-07-02T12:47:59.235Z,26.01
2018-07-02T12:48:59.242Z,25.93
2018-07-02T12:49:59.220Z,25.57
2018-07-02T12:50:59.201Z,25.57
2018-07-02T12:51:59.177Z,25.64